createdAt,value
2018-07-25T00:01:57.565Z,14.70
2018-07-25T00:04:26.276Z,14.30
2018-07-25T00:06:54.727Z,15.00
2018-07-25T00:09:23.169Z,13.43
2018-07-25T00:11:51.653Z,16.43
2018-07-25T00:14:20.018Z,14.80
2018-07-25T00:16:48.407Z,16.00
2018-07-25T00:19:16.727Z,16.80
2018-07-25T00:21:45.164Z,15.53
2018-07-25T00:24:13.593Z,15.13
2018-07-25T00:26:41.930Z,15.83
2018-07-25T00:29:10.257Z,15.33
2018-07-25T00:31:39.553Z,15.07
2018-07-25T00:34:08.032Z,16.13
2018-07-25T00:36:36.454Z,15.83
2018-07-25T00:39:06.800Z,15.53
2018-07-25T00:41:35.246Z,15.30
2018-07-25T00:44:03.640Z,15.30
2018-07-25T00:46:32.047Z,15.80
2018-07-25T00:49:00.615Z,15.60
2018-07-25T00:51:29.086Z,16.20
2018-07-25T00:53:57.435Z,16.87
2018-07-25T00:56:25.829Z,16.50
2018-07-25T00:58:54.276Z,15.23
2018-07-25T01:01:22.672Z,15.97
2018-07-25T01:03:51.081Z,14.97
2018-07-25T01:06:19.482Z,15.57
2018-07-25T01:08:47.895Z,15.07
2018-07-25T01:11:16.303Z,13.70
2018-07-25T01:13:44.729Z,14.80
2018-07-25T01:16:13.136Z,16.10
2018-07-25T01:18:41.533Z,14.47
2018-07-25T01:21:10.040Z,15.33
2018-07-25T01:23:38.450Z,15.50
2018-07-25T01:26:06.903Z,17.17
2018-07-25T01:28:35.303Z,14.37
2018-07-25T01:31:03.756Z,14.00
2018-07-25T01:33:32.194Z,14.33
2018-07-25T01:36:00.625Z,15.53
2018-07-25T01:38:29.037Z,14.03
2018-07-25T01:40:57.495Z,15.60
2018-07-25T01:43:25.941Z,15.13
2018-07-25T01:45:54.350Z,14.70
2018-07-25T01:48:22.768Z,15.60
2018-07-25T01:50:51.153Z,15.23
2018-07-25T01:53:19.600Z,16.53
2018-07-25T01:55:48.034Z,14.90
2018-07-25T01:58:16.367Z,16.17
2018-07-25T02:00:47.500Z,14.73
2018-07-25T02:03:16.955Z,15.20
2018-07-25T02:05:45.447Z,15.13
2018-07-25T02:08:13.892Z,16.07
2018-07-25T02:10:45.450Z,14.90
2018-07-25T02:13:15.639Z,14.70
2018-07-25T02:15:44.247Z,15.40
2018-07-25T02:18:12.696Z,15.17
2018-07-25T02:20:41.051Z,14.40
2018-07-25T02:23:09.400Z,13.90
2018-07-25T02:25:37.821Z,15.40
2018-07-25T02:28:06.617Z,15.60
2018-07-25T02:30:34.938Z,15.87
2018-07-25T02:33:03.345Z,14.90
2018-07-25T02:35:31.793Z,15.67
2018-07-25T02:38:00.363Z,16.03
2018-07-25T02:40:28.788Z,15.30
2018-07-25T02:42:57.232Z,15.90
2018-07-25T02:45:25.704Z,16.50
2018-07-25T02:47:54.210Z,15.20
2018-07-25T02:50:22.623Z,17.07
2018-07-25T02:52:51.119Z,18.43
2018-07-25T02:55:19.571Z,16.27
2018-07-25T02:57:48.014Z,14.80
2018-07-25T03:00:16.509Z,17.07
2018-07-25T03:02:44.893Z,16.67
2018-07-25T03:05:13.307Z,16.30
2018-07-25T03:07:41.731Z,16.37
2018-07-25T03:10:10.339Z,17.57
2018-07-25T03:12:38.710Z,17.27
2018-07-25T03:15:07.175Z,16.70
2018-07-25T03:17:35.565Z,15.97
2018-07-25T03:20:03.947Z,15.53
2018-07-25T03:22:32.326Z,16.57
2018-07-25T03:25:00.659Z,16.47
2018-07-25T03:27:29.094Z,17.00
2018-07-25T03:29:57.508Z,16.40
2018-07-25T03:32:25.936Z,16.87
2018-07-25T03:34:54.389Z,16.90
2018-07-25T03:37:22.811Z,16.17
2018-07-25T03:39:51.182Z,15.93
2018-07-25T03:42:19.596Z,17.00
2018-07-25T03:44:48.346Z,17.63
2018-07-25T03:47:16.769Z,16.77
2018-07-25T03:49:45.186Z,16.60
2018-07-25T03:52:13.529Z,16.93
2018-07-25T03:54:41.869Z,17.57
2018-07-25T03:57:10.273Z,17.53
2018-07-25T03:59:38.637Z,16.00
2018-07-25T04:02:07.181Z,18.00
2018-07-25T04:04:35.689Z,15.47
2018-07-25T04:07:04.048Z,15.80
2018-07-25T04:09:32.431Z,15.03
2018-07-25T04:12:00.850Z,16.60
2018-07-25T04:14:29.273Z,16.47
2018-07-25T04:16:57.703Z,15.03
2018-07-25T04:19:26.049Z,16.00
2018-07-25T04:21:54.429Z,15.47
2018-07-25T04:24:22.829Z,14.77
2018-07-25T04:26:51.256Z,14.77
2018-07-25T04:29:19.664Z,15.70
2018-07-25T04:31:48.079Z,15.80
2018-07-25T04:34:16.445Z,14.30
2018-07-25T04:36:44.802Z,14.73
2018-07-25T04:39:13.230Z,15.43
2018-07-25T04:41:41.774Z,15.27
2018-07-25T04:44:10.682Z,14.33
2018-07-25T04:46:39.409Z,14.60
2018-07-25T04:49:07.703Z,12.43
2018-07-25T04:51:36.173Z,12.70
2018-07-25T04:54:04.588Z,13.60
2018-07-25T04:56:33.049Z,12.80
2018-07-25T04:59:01.508Z,12.17
2018-07-25T05:01:29.858Z,11.60
2018-07-25T05:03:58.213Z,12.47
2018-07-25T05:06:26.599Z,12.90
2018-07-25T05:08:55.034Z,12.63
2018-07-25T05:11:23.364Z,11.33
2018-07-25T05:13:51.730Z,14.20
2018-07-25T05:16:20.157Z,13.27
2018-07-25T05:18:48.492Z,11.50
2018-07-25T05:21:16.837Z,10.50
2018-07-25T05:23:45.566Z,10.40
2018-07-25T05:26:13.999Z,9.93
2018-07-25T05:28:42.400Z,9.67
2018-07-25T05:31:10.955Z,9.47
2018-07-25T05:33:39.332Z,8.90
2018-07-25T05:36:07.790Z,10.30
2018-07-25T05:38:36.254Z,9.60
2018-07-25T05:41:04.672Z,8.93
2018-07-25T05:43:33.084Z,10.03
2018-07-25T05:46:01.556Z,9.33
2018-07-25T05:48:30.015Z,8.80
2018-07-25T05:50:58.401Z,9.50
2018-07-25T05:53:26.753Z,10.63
2018-07-25T05:55:55.357Z,9.23
2018-07-25T05:58:23.752Z,9.80
2018-07-25T06:00:52.198Z,9.53
2018-07-25T06:03:20.657Z,9.57
2018-07-25T06:05:49.089Z,9.23
2018-07-25T06:08:17.581Z,9.90
2018-07-25T06:10:46.025Z,9.43
2018-07-25T06:13:14.441Z,9.47
2018-07-25T06:15:42.801Z,9.80
2018-07-25T06:18:11.269Z,8.90
2018-07-25T06:20:39.732Z,8.67
2018-07-25T06:23:08.039Z,9.73
2018-07-25T06:25:36.575Z,10.20
2018-07-25T06:28:05.003Z,8.43
2018-07-25T06:30:33.429Z,9.07
2018-07-25T06:33:01.902Z,8.97
2018-07-25T06:35:30.280Z,8.47
2018-07-25T06:37:58.724Z,8.87
2018-07-25T06:40:27.107Z,9.07
2018-07-25T06:42:55.442Z,9.23
2018-07-25T06:45:23.867Z,8.23
2018-07-25T06:47:56.398Z,9.03
2018-07-25T06:50:24.927Z,9.37
2018-07-25T06:52:53.343Z,11.40
2018-07-25T06:55:21.810Z,9.37
2018-07-25T06:57:50.255Z,8.97
2018-07-25T07:00:18.665Z,8.90
2018-07-25T07:02:47.362Z,9.97
2018-07-25T07:05:15.890Z,10.10
2018-07-25T07:07:44.795Z,30.57
2018-07-25T07:10:13.193Z,9.47
2018-07-25T07:12:41.604Z,8.77
2018-07-25T07:15:11.016Z,9.63
2018-07-25T07:17:41.224Z,9.03
2018-07-25T07:20:09.568Z,9.27
2018-07-25T07:22:37.995Z,8.73
2018-07-25T07:25:06.744Z,9.27
2018-07-25T07:27:35.141Z,9.80
2018-07-25T07:30:03.568Z,10.17
2018-07-25T07:32:31.921Z,8.13
2018-07-25T07:35:00.481Z,9.20
2018-07-25T07:37:28.940Z,9.10
2018-07-25T07:39:57.335Z,9.00
2018-07-25T07:42:25.851Z,9.23
2018-07-25T07:44:54.281Z,8.90
2018-07-25T07:47:22.868Z,8.17
2018-07-25T07:49:51.514Z,8.07
2018-07-25T07:52:19.894Z,9.33
2018-07-25T07:54:48.319Z,8.40
2018-07-25T07:57:16.689Z,8.43
2018-07-25T07:59:45.019Z,7.83
2018-07-25T08:02:13.425Z,7.23
2018-07-25T08:04:41.831Z,7.93
2018-07-25T08:07:10.150Z,7.97
2018-07-25T08:09:38.492Z,12.40
2018-07-25T08:12:06.922Z,9.90
2018-07-25T08:14:35.323Z,8.47
2018-07-25T08:17:03.743Z,8.60
2018-07-25T08:19:32.138Z,8.50
2018-07-25T08:22:00.569Z,7.50
2018-07-25T08:24:28.987Z,7.43
2018-07-25T08:26:57.513Z,8.40
2018-07-25T08:29:25.910Z,7.70
2018-07-25T08:31:54.414Z,8.20
2018-07-25T08:34:22.840Z,8.33
2018-07-25T08:36:51.195Z,8.20
2018-07-25T08:39:19.576Z,7.80
2018-07-25T08:41:48.008Z,8.00
2018-07-25T08:44:16.417Z,8.60
2018-07-25T08:46:44.782Z,7.77
2018-07-25T08:49:13.205Z,8.70
2018-07-25T08:51:41.577Z,8.70
2018-07-25T08:54:09.976Z,8.10
2018-07-25T08:56:38.293Z,8.53
2018-07-25T08:59:06.746Z,8.00
2018-07-25T09:01:35.167Z,8.77
2018-07-25T09:04:03.661Z,9.10
2018-07-25T09:06:32.119Z,8.97
2018-07-25T09:09:00.432Z,10.43
2018-07-25T09:11:33.009Z,8.50
2018-07-25T09:14:01.418Z,9.13
2018-07-25T09:16:30.031Z,9.17
2018-07-25T09:18:58.504Z,8.97
2018-07-25T09:21:26.783Z,9.47
2018-07-25T09:23:55.271Z,9.00
2018-07-25T09:26:23.657Z,8.97
2018-07-25T09:28:52.137Z,9.50
2018-07-25T09:31:20.600Z,9.77
2018-07-25T09:33:49.100Z,8.30
2018-07-25T09:36:17.676Z,8.77
2018-07-25T09:38:46.129Z,8.50
2018-07-25T09:41:14.547Z,7.70
2018-07-25T09:43:43.171Z,7.20
2018-07-25T09:46:11.555Z,7.93
2018-07-25T09:48:39.983Z,9.40
2018-07-25T09:51:08.704Z,9.33
2018-07-25T09:53:37.277Z,8.23
2018-07-25T09:56:05.755Z,9.20
2018-07-25T09:58:34.207Z,8.73
2018-07-25T10:01:02.624Z,8.57
2018-07-25T10:03:32.237Z,8.77
2018-07-25T10:06:00.757Z,9.00
2018-07-25T10:08:29.174Z,7.90
2018-07-25T10:10:57.676Z,8.60
2018-07-25T10:13:26.227Z,8.80
2018-07-25T10:15:54.672Z,8.20
2018-07-25T10:18:23.158Z,8.87
2018-07-25T10:20:51.679Z,7.40
2018-07-25T10:23:20.068Z,8.67
2018-07-25T10:25:48.459Z,8.40
2018-07-25T10:28:16.962Z,8.47
2018-07-25T10:30:45.374Z,8.73
2018-07-25T10:33:13.821Z,8.17
2018-07-25T10:35:42.236Z,8.10
2018-07-25T10:38:10.601Z,8.57
2018-07-25T10:40:40.089Z,9.03
2018-07-25T10:43:08.561Z,8.20
2018-07-25T10:45:36.953Z,7.57
2018-07-25T10:48:05.300Z,7.67
2018-07-25T10:50:33.688Z,8.40
2018-07-25T10:53:02.043Z,9.30
2018-07-25T10:55:30.666Z,9.03
2018-07-25T10:57:59.105Z,8.63
2018-07-25T11:00:27.498Z,7.57
2018-07-25T11:02:55.942Z,6.80
2018-07-25T11:05:24.316Z,8.20
2018-07-25T11:07:52.671Z,7.23
2018-07-25T11:10:21.970Z,6.97
2018-07-25T11:12:50.474Z,7.07
2018-07-25T11:15:18.924Z,7.87
2018-07-25T11:17:47.547Z,7.73
2018-07-25T11:20:15.987Z,7.90
2018-07-25T11:22:44.388Z,7.90
2018-07-25T11:25:12.823Z,7.60
2018-07-25T11:27:41.252Z,7.07
2018-07-25T11:30:09.673Z,7.30
2018-07-25T11:32:38.245Z,6.73
2018-07-25T11:35:06.604Z,7.67
2018-07-25T11:37:35.111Z,7.30
2018-07-25T11:40:03.930Z,7.97
2018-07-25T11:42:32.429Z,6.90
2018-07-25T11:45:00.895Z,6.80
2018-07-25T11:47:29.291Z,7.37
2018-07-25T11:49:57.812Z,8.20
2018-07-25T11:52:26.155Z,7.83
2018-07-25T11:54:54.806Z,7.13
2018-07-25T11:57:23.218Z,8.63
2018-07-25T11:59:51.610Z,8.57
2018-07-25T12:02:20.147Z,8.57
2018-07-25T12:04:48.776Z,7.80
2018-07-25T12:07:17.171Z,8.77
2018-07-25T12:09:45.850Z,8.40
2018-07-25T12:12:14.333Z,8.03
2018-07-25T12:14:42.778Z,7.20
2018-07-25T12:17:11.632Z,6.40
2018-07-25T12:19:40.162Z,7.40
2018-07-25T12:22:08.613Z,7.43
2018-07-25T12:24:36.985Z,6.60
2018-07-25T12:27:05.582Z,6.63
2018-07-25T12:29:34.016Z,6.70
2018-07-25T12:32:02.501Z,9.70
2018-07-25T12:34:30.793Z,6.07
2018-07-25T12:36:59.305Z,6.33
2018-07-25T12:39:27.752Z,5.90
2018-07-25T12:41:56.083Z,7.00
2018-07-25T12:44:25.300Z,6.33
2018-07-25T12:46:53.827Z,6.57
2018-07-25T12:49:22.242Z,7.13
2018-07-25T12:51:50.671Z,6.80
2018-07-25T12:54:19.059Z,6.80
2018-07-25T12:56:47.492Z,6.50
2018-07-25T12:59:15.901Z,6.40
2018-07-25T13:01:44.502Z,6.50
2018-07-25T13:04:12.872Z,5.47
2018-07-25T13:06:41.964Z,5.83
2018-07-25T13:09:11.787Z,6.90
2018-07-25T13:11:40.222Z,6.40
2018-07-25T13:14:08.784Z,5.83
2018-07-25T13:16:37.761Z,6.47
2018-07-25T13:19:06.360Z,6.20
2018-07-25T13:21:35.092Z,6.00
2018-07-25T13:24:03.496Z,6.43
2018-07-25T13:26:31.865Z,7.00
2018-07-25T13:29:00.190Z,6.03
2018-07-25T13:31:28.636Z,6.30
2018-07-25T13:33:56.988Z,5.67
2018-07-25T13:36:25.425Z,6.30
2018-07-25T13:38:53.781Z,5.30
2018-07-25T13:41:22.218Z,5.60
2018-07-25T13:43:50.891Z,5.40
2018-07-25T13:46:19.473Z,4.70
2018-07-25T13:48:48.256Z,5.20
2018-07-25T13:51:16.678Z,5.33
2018-07-25T13:53:45.179Z,6.80
2018-07-25T13:56:13.681Z,4.90
2018-07-25T13:58:42.218Z,4.83
2018-07-25T14:01:10.618Z,5.27
2018-07-25T14:03:39.193Z,6.57
2018-07-25T14:06:07.637Z,6.07
2018-07-25T14:08:36.013Z,5.83
2018-07-25T14:11:04.411Z,5.20
2018-07-25T14:13:32.800Z,6.33
2018-07-25T14:16:01.213Z,5.07
2018-07-25T14:18:29.725Z,5.70
2018-07-25T14:20:58.133Z,5.33
2018-07-25T14:23:26.831Z,4.87
2018-07-25T14:25:55.373Z,4.90
2018-07-25T14:28:24.224Z,5.87
2018-07-25T14:30:52.620Z,5.70
2018-07-25T14:33:21.037Z,4.57
2018-07-25T14:35:49.442Z,6.03
2018-07-25T14:38:17.803Z,5.77
2018-07-25T14:40:46.222Z,5.10
2018-07-25T14:43:15.162Z,5.17
2018-07-25T14:45:43.557Z,5.53
2018-07-25T14:48:12.360Z,5.07
2018-07-25T14:50:41.179Z,4.67
2018-07-25T14:53:09.977Z,5.17
2018-07-25T14:55:39.029Z,4.70
2018-07-25T14:58:08.136Z,4.60
2018-07-25T15:00:36.949Z,4.70
2018-07-25T15:03:05.799Z,5.20
2018-07-25T15:05:37.540Z,5.30
2018-07-25T15:08:06.925Z,6.23
2018-07-25T15:10:35.817Z,6.40
2018-07-25T15:13:04.653Z,4.33
2018-07-25T15:15:33.672Z,4.80
2018-07-25T15:18:02.629Z,5.00
2018-07-25T15:20:31.556Z,5.83
2018-07-25T15:23:00.854Z,6.03
2018-07-25T15:25:30.071Z,5.60
2018-07-25T15:27:59.254Z,6.60
2018-07-25T15:30:28.178Z,6.20
2018-07-25T15:32:57.127Z,6.43
2018-07-25T15:35:26.017Z,5.57
2018-07-25T15:37:54.947Z,6.10
2018-07-25T15:40:23.409Z,5.93
2018-07-25T15:42:52.916Z,6.33
2018-07-25T15:45:21.708Z,6.20
2018-07-25T15:47:50.206Z,7.33
2018-07-25T15:50:18.819Z,7.47
2018-07-25T15:52:48.216Z,7.83
2018-07-25T15:55:16.906Z,7.73
2018-07-25T15:57:45.913Z,8.13
2018-07-25T16:00:15.802Z,7.20
2018-07-25T16:02:44.707Z,8.47
2018-07-25T16:05:13.845Z,7.60
2018-07-25T16:07:42.925Z,7.90
2018-07-25T16:10:11.410Z,6.90
2018-07-25T16:12:39.837Z,8.13
2018-07-25T16:15:08.234Z,7.57
2018-07-25T16:17:36.682Z,7.77
2018-07-25T16:20:05.422Z,7.00
2018-07-25T16:22:33.827Z,7.00
2018-07-25T16:25:03.264Z,7.50
2018-07-25T16:27:32.055Z,7.90
2018-07-25T16:30:01.608Z,7.67
2018-07-25T16:32:31.063Z,7.63
2018-07-25T16:34:59.745Z,7.40
2018-07-25T16:37:29.352Z,8.93
2018-07-25T16:39:58.292Z,9.10
2018-07-25T16:42:26.696Z,8.10
2018-07-25T16:44:55.171Z,8.23
2018-07-25T16:47:23.655Z,7.83
2018-07-25T16:49:52.040Z,7.23
2018-07-25T16:52:20.495Z,7.57
2018-07-25T16:54:48.908Z,7.30
2018-07-25T16:57:19.058Z,6.00
2018-07-25T16:59:47.812Z,6.30
2018-07-25T17:02:16.437Z,6.50
2018-07-25T17:04:44.816Z,7.47
2018-07-25T17:07:13.157Z,7.10
2018-07-25T17:09:41.538Z,8.70
2018-07-25T17:12:10.153Z,8.53
2018-07-25T17:14:38.657Z,8.80
2018-07-25T17:17:06.987Z,8.43
2018-07-25T17:19:35.390Z,8.60
2018-07-25T17:22:03.768Z,9.23
2018-07-25T17:24:32.511Z,9.37
2018-07-25T17:27:01.021Z,9.80
2018-07-25T17:29:29.420Z,10.43
2018-07-25T17:31:57.870Z,12.23
2018-07-25T17:34:26.266Z,11.40
2018-07-25T17:36:54.687Z,10.97
2018-07-25T17:39:23.157Z,10.17
2018-07-25T17:41:51.549Z,10.70
2018-07-25T17:44:20.057Z,10.10
2018-07-25T17:46:48.512Z,9.80
2018-07-25T17:49:16.869Z,9.70
2018-07-25T17:51:45.246Z,10.53
2018-07-25T17:54:13.956Z,9.87
2018-07-25T17:56:42.505Z,10.00
2018-07-25T17:59:10.919Z,8.93
2018-07-25T18:01:39.298Z,10.13
2018-07-25T18:04:08.084Z,9.60
2018-07-25T18:06:36.567Z,11.17
2018-07-25T18:09:07.649Z,11.40
2018-07-25T18:11:36.034Z,11.57
2018-07-25T18:14:11.891Z,12.17
2018-07-25T18:16:40.795Z,12.57
2018-07-25T18:19:09.452Z,10.60
2018-07-25T18:21:37.888Z,12.60
2018-07-25T18:24:06.269Z,11.70
2018-07-25T18:26:34.650Z,11.67
2018-07-25T18:29:03.219Z,11.47
2018-07-25T18:31:31.683Z,11.10
2018-07-25T18:34:00.099Z,11.37
2018-07-25T18:36:28.590Z,11.77
2018-07-25T18:38:57.191Z,11.40
2018-07-25T18:41:25.815Z,12.00
2018-07-25T18:43:54.137Z,10.87
2018-07-25T18:46:22.545Z,10.70
2018-07-25T18:48:51.017Z,11.07
2018-07-25T18:51:19.417Z,11.20
2018-07-25T18:53:47.801Z,10.17
2018-07-25T18:56:16.251Z,11.13
2018-07-25T18:58:44.656Z,12.47
2018-07-25T19:01:13.420Z,11.03
2018-07-25T19:03:41.793Z,11.50
2018-07-25T19:06:10.181Z,12.17
2018-07-25T19:08:38.625Z,10.73
2018-07-25T19:11:06.957Z,10.90
2018-07-25T19:13:36.118Z,10.30
2018-07-25T19:16:05.522Z,11.20
2018-07-25T19:18:34.418Z,10.20
2018-07-25T19:21:02.829Z,9.53
2018-07-25T19:23:31.274Z,10.40
2018-07-25T19:25:59.714Z,9.90
2018-07-25T19:28:28.153Z,9.37
2018-07-25T19:30:56.488Z,10.90
2018-07-25T19:33:24.849Z,11.87
2018-07-25T19:35:52.973Z,10.10
2018-07-25T19:38:21.375Z,9.90
2018-07-25T19:40:49.805Z,8.40
2018-07-25T19:43:20.521Z,8.30
2018-07-25T19:45:48.943Z,9.47
2018-07-25T19:48:17.350Z,9.00
2018-07-25T19:50:46.829Z,8.63
2018-07-25T19:53:15.338Z,9.10
2018-07-25T19:55:43.726Z,9.80
2018-07-25T19:58:12.383Z,10.60
2018-07-25T20:00:40.772Z,9.90
2018-07-25T20:03:09.181Z,10.40
2018-07-25T20:05:37.583Z,11.17
2018-07-25T20:08:06.098Z,9.90
2018-07-25T20:10:34.805Z,10.60
2018-07-25T20:13:03.417Z,11.17
2018-07-25T20:15:37.118Z,10.67
2018-07-25T20:18:05.945Z,10.13
2018-07-25T20:20:34.303Z,10.03
2018-07-25T20:23:02.706Z,10.60
2018-07-25T20:25:31.176Z,10.37
2018-07-25T20:27:59.661Z,11.67
2018-07-25T20:30:28.010Z,11.07
2018-07-25T20:32:56.389Z,12.50
2018-07-25T20:35:24.804Z,10.43
2018-07-25T20:37:53.169Z,11.50
2018-07-25T20:40:21.604Z,11.03
2018-07-25T20:42:50.036Z,11.00
2018-07-25T20:45:18.447Z,11.40
2018-07-25T20:47:46.749Z,11.07
2018-07-25T20:50:15.154Z,11.40
2018-07-25T20:52:43.603Z,11.70
2018-07-25T20:55:12.110Z,12.90
2018-07-25T20:57:40.520Z,11.17
2018-07-25T21:00:08.940Z,11.90
2018-07-25T21:02:37.523Z,12.57
2018-07-25T21:05:06.010Z,11.33
2018-07-25T21:07:34.424Z,12.10
2018-07-25T21:10:02.855Z,11.13
2018-07-25T21:12:31.294Z,13.20
2018-07-25T21:14:59.751Z,12.47
2018-07-25T21:17:28.151Z,27.27
2018-07-25T21:19:56.477Z,12.43
2018-07-25T21:22:24.923Z,12.83
2018-07-25T21:24:53.409Z,11.50
2018-07-25T21:27:21.883Z,12.70
2018-07-25T21:29:53.654Z,12.23
2018-07-25T21:32:22.308Z,11.80
2018-07-25T21:34:50.947Z,11.83
2018-07-25T21:37:19.366Z,10.73
2018-07-25T21:39:47.809Z,12.03
2018-07-25T21:42:16.169Z,11.80
2018-07-25T21:44:44.820Z,11.10
2018-07-25T21:47:13.409Z,12.20
2018-07-25T21:49:42.041Z,10.80
2018-07-25T21:52:10.521Z,11.23
2018-07-25T21:54:38.973Z,11.73
2018-07-25T21:57:07.586Z,11.67
2018-07-25T21:59:36.273Z,11.17
2018-07-25T22:02:04.949Z,12.50
2018-07-25T22:04:33.417Z,11.73
2018-07-25T22:07:01.985Z,12.17
2018-07-25T22:09:30.526Z,10.60
2018-07-25T22:11:58.845Z,10.97
2018-07-25T22:14:27.244Z,12.10
2018-07-25T22:16:55.844Z,11.47
2018-07-25T22:19:24.529Z,11.03
2018-07-25T22:21:53.660Z,9.83
2018-07-25T22:24:22.847Z,11.10
2018-07-25T22:26:51.274Z,11.23
2018-07-25T22:29:21.398Z,10.93
2018-07-25T22:31:50.251Z,10.90
2018-07-25T22:34:18.628Z,11.30
2018-07-25T22:36:47.113Z,10.33
2018-07-25T22:39:15.877Z,10.33
2018-07-25T22:41:44.657Z,11.67
2018-07-25T22:44:13.134Z,11.50
2018-07-25T22:46:41.663Z,11.17
2018-07-25T22:49:10.055Z,12.60
2018-07-25T22:51:38.477Z,12.20
2018-07-25T22:54:08.906Z,11.07
2018-07-25T22:56:37.299Z,11.20
2018-07-25T22:59:05.930Z,10.83
2018-07-25T23:01:36.060Z,11.70
2018-07-25T23:04:04.754Z,11.70
2018-07-25T23:06:33.679Z,11.90
2018-07-25T23:09:02.562Z,11.13
2018-07-25T23:11:32.270Z,11.00
2018-07-25T23:14:00.734Z,11.67
2018-07-25T23:16:29.136Z,10.03
2018-07-25T23:18:57.522Z,10.17
2018-07-25T23:21:25.976Z,11.40
2018-07-25T23:23:54.387Z,11.30
2018-07-25T23:26:22.783Z,10.60
2018-07-25T23:28:51.180Z,11.57
2018-07-25T23:31:19.523Z,10.40
2018-07-25T23:33:48.064Z,11.43
2018-07-25T23:36:16.418Z,11.87
2018-07-25T23:38:44.854Z,11.07
2018-07-25T23:41:13.243Z,10.13
2018-07-25T23:43:41.641Z,10.80
2018-07-25T23:46:10.035Z,10.50
2018-07-25T23:48:38.385Z,10.57
2018-07-25T23:51:07.305Z,10.27
2018-07-25T23:53:35.760Z,10.50
2018-07-25T23:56:04.122Z,9.40
2018-07-25T23:58:32.578Z,12.17
